sensor_id;sensor_type;location;lat;lon;timestamp;pressure;altitude;pressure_sealevel;temperature;humidity
21960;BME280;11144;43.030;25.108;2023-03-16T00:01:28;98196.16;;;10.66;100.00
21960;BME280;11144;43.030;25.108;2023-03-16T00:03:01;98196.69;;;10.72;100.00
21960;BME280;11144;43.030;25.108;2023-03-16T00:04:36;98206.00;;;10.79;100.00
21960;BME280;11144;43.030;25.108;2023-03-16T00:06:10;98214.09;;;10.76;100.00
21960;BME280;11144;43.030;25.108;2023-03-16T00:07:43;98206.91;;;10.78;100.00
21960;BME280;11144;43.030;25.108;2023-03-16T00:09:16;98208.72;;;10.78;100.00
21960;BME280;11144;43.030;25.108;2023-03-16T00:10:51;98205.38;;;10.74;100.00
21960;BME280;11144;43.030;25.108;2023-03-16T00:12:25;98201.03;;;10.73;100.00
21960;BME280;11144;43.030;25.108;2023-03-16T00:13:58;98218.53;;;10.76;100.00
21960;BME280;11144;43.030;25.108;2023-03-16T00:15:31;98220.50;;;10.72;100.00
21960;BME280;11144;43.030;25.108;2023-03-16T00:17:06;98218.59;;;10.74;100.00
21960;BME280;11144;43.030;25.108;2023-03-16T00:18:39;98220.56;;;10.71;100.00
21960;BME280;11144;43.030;25.108;2023-03-16T00:20:14;98225.16;;;10.67;100.00
21960;BME280;11144;43.030;25.108;2023-03-16T00:21:47;98228.50;;;10.71;100.00
21960;BME280;11144;43.030;25.108;2023-03-16T00:23:20;98233.78;;;10.71;100.00
21960;BME280;11144;43.030;25.108;2023-03-16T00:24:58;98231.22;;;10.69;100.00
21960;BME280;11144;43.030;25.108;2023-03-16T00:26:31;98238.38;;;10.67;100.00
21960;BME280;11144;43.030;25.108;2023-03-16T00:28:04;98239.41;;;10.65;100.00
21960;BME280;11144;43.030;25.108;2023-03-16T00:29:38;98240.50;;;10.61;100.00
21960;BME280;11144;43.030;25.108;2023-03-16T00:31:10;98221.97;;;10.45;100.00
21960;BME280;11144;43.030;25.108;2023-03-16T00:32:44;98234.94;;;10.50;100.00
21960;BME280;11144;43.030;25.108;2023-03-16T00:34:20;98235.00;;;10.48;100.00
21960;BME280;11144;43.030;25.108;2023-03-16T00:35:55;98236.09;;;10.44;100.00
21960;BME280;11144;43.030;25.108;2023-03-16T00:37:34;98230.03;;;10.42;100.00
21960;BME280;11144;43.030;25.108;2023-03-16T00:39:07;98226.94;;;10.51;100.00
21960;BME280;11144;43.030;25.108;2023-03-16T00:40:43;98230.91;;;10.43;100.00
21960;BME280;11144;43.030;25.108;2023-03-16T00:42:17;98231.31;;;10.35;100.00
21960;BME280;11144;43.030;25.108;2023-03-16T00:43:51;98238.63;;;10.30;100.00
21960;BME280;11144;43.030;25.108;2023-03-16T00:45:24;98224.81;;;10.25;100.00
21960;BME280;11144;43.030;25.108;2023-03-16T00:46:57;98238.31;;;10.19;100.00
21960;BME280;11144;43.030;25.108;2023-03-16T00:48:30;98232.59;;;10.11;100.00
21960;BME280;11144;43.030;25.108;2023-03-16T00:50:06;98241.13;;;10.16;100.00
21960;BME280;11144;43.030;25.108;2023-03-16T00:51:41;98245.22;;;10.21;100.00
21960;BME280;11144;43.030;25.108;2023-03-16T00:53:17;98236.31;;;10.24;100.00
21960;BME280;11144;43.030;25.108;2023-03-16T00:54:50;98236.25;;;10.25;100.00
21960;BME280;11144;43.030;25.108;2023-03-16T00:56:25;98238.78;;;10.27;100.00
21960;BME280;11144;43.030;25.108;2023-03-16T00:57:58;98245.78;;;10.28;100.00
21960;BME280;11144;43.030;25.108;2023-03-16T00:59:35;98242.50;;;10.23;100.00
21960;BME280;11144;43.030;25.108;2023-03-16T01:01:10;98217.00;;;10.05;100.00
21960;BME280;11144;43.030;25.108;2023-03-16T01:02:44;98248.25;;;10.31;100.00
21960;BME280;11144;43.030;25.108;2023-03-16T01:04:17;98259.91;;;10.27;100.00
21960;BME280;11144;43.030;25.108;2023-03-16T01:05:50;98256.50;;;10.25;100.00
21960;BME280;11144;43.030;25.108;2023-03-16T01:07:26;98268.78;;;10.26;100.00
21960;BME280;11144;43.030;25.108;2023-03-16T01:09:01;98259.91;;;10.27;100.00
21960;BME280;11144;43.030;25.108;2023-03-16T01:10:36;98266.91;;;10.28;100.00
21960;BME280;11144;43.030;25.108;2023-03-16T01:12:13;98256.66;;;10.22;100.00
21960;BME280;11144;43.030;25.108;2023-03-16T01:13:46;98256.00;;;10.34;100.00
21960;BME280;11144;43.030;25.108;2023-03-16T01:15:20;98259.75;;;10.30;100.00
21960;BME280;11144;43.030;25.108;2023-03-16T01:16:53;98251.22;;;10.25;100.00
21960;BME280;11144;43.030;25.108;2023-03-16T01:18:26;98252.91;;;10.26;100.00
21960;BME280;11144;43.030;25.108;2023-03-16T01:20:00;98255.63;;;10.24;100.00
21960;BME280;11144;43.030;25.108;2023-03-16T01:21:34;98253.06;;;10.23;100.00
21960;BME280;11144;43.030;25.108;2023-03-16T01:23:10;98262.81;;;10.22;100.00
21960;BME280;11144;43.030;25.108;2023-03-16T01:24:43;98265.66;;;10.18;100.00
21960;BME280;11144;43.030;25.108;2023-03-16T01:26:16;98269.72;;;10.08;100.00
21960;BME280;11144;43.030;25.108;2023-03-16T01:27:51;98264.28;;;10.11;100.00
21960;BME280;11144;43.030;25.108;2023-03-16T01:29:24;98262.72;;;10.07;100.00
21960;BME280;11144;43.030;25.108;2023-03-16T01:31:03;98268.44;;;9.98;100.00
21960;BME280;11144;43.030;25.108;2023-03-16T01:32:38;98266.13;;;9.92;100.00
21960;BME280;11144;43.030;25.108;2023-03-16T01:34:14;98265.06;;;9.77;100.00
21960;BME280;11144;43.030;25.108;2023-03-16T01:35:52;98258.03;;;9.78;100.00
21960;BME280;11144;43.030;25.108;2023-03-16T01:37:26;98271.84;;;9.66;100.00
21960;BME280;11144;43.030;25.108;2023-03-16T01:39:04;98269.28;;;9.64;100.00
21960;BME280;11144;43.030;25.108;2023-03-16T01:40:44;98281.53;;;9.65;100.00
21960;BME280;11144;43.030;25.108;2023-03-16T01:42:21;98278.97;;;9.64;100.00
21960;BME280;11144;43.030;25.108;2023-03-16T01:43:55;98276.78;;;9.72;100.00
21960;BME280;11144;43.030;25.108;2023-03-16T01:45:57;98268.13;;;9.70;100.00
21960;BME280;11144;43.030;25.108;2023-03-16T01:47:44;98277.94;;;9.66;100.00
21960;BME280;11144;43.030;25.108;2023-03-16T01:49:22;98271.19;;;9.61;100.00
21960;BME280;11144;43.030;25.108;2023-03-16T01:50:57;98263.50;;;9.56;100.00
21960;BME280;11144;43.030;25.108;2023-03-16T01:52:31;98279.78;;;9.47;100.00
21960;BME280;11144;43.030;25.108;2023-03-16T01:54:11;98270.63;;;9.37;100.00
21960;BME280;11144;43.030;25.108;2023-03-16T01:55:46;98278.88;;;9.48;100.00
21960;BME280;11144;43.030;25.108;2023-03-16T01:57:20;98279.56;;;9.52;100.00
21960;BME280;11144;43.030;25.108;2023-03-16T01:58:56;98277.53;;;9.57;100.00
21960;BME280;11144;43.030;25.108;2023-03-16T02:00:30;98287.25;;;9.56;100.00
21960;BME280;11144;43.030;25.108;2023-03-16T02:02:12;98282.81;;;9.57;100.00
21960;BME280;11144;43.030;25.108;2023-03-16T02:03:45;98275.31;;;9.31;100.00
21960;BME280;11144;43.030;25.108;2023-03-16T02:05:29;98296.13;;;9.37;100.00
21960;BME280;11144;43.030;25.108;2023-03-16T02:07:06;98290.16;;;9.33;100.00
21960;BME280;11144;43.030;25.108;2023-03-16T02:08:41;98302.47;;;9.33;100.00
21960;BME280;11144;43.030;25.108;2023-03-16T02:10:18;98299.69;;;9.36;100.00
21960;BME280;11144;43.030;25.108;2023-03-16T02:11:53;98305.97;;;9.33;100.00
21960;BME280;11144;43.030;25.108;2023-03-16T02:13:28;98320.66;;;9.39;100.00
21960;BME280;11144;43.030;25.108;2023-03-16T02:15:06;98303.84;;;9.23;100.00
21960;BME280;11144;43.030;25.108;2023-03-16T02:16:40;98323.38;;;9.19;100.00
21960;BME280;11144;43.030;25.108;2023-03-16T02:18:13;98328.63;;;9.19;100.00
21960;BME280;11144;43.030;25.108;2023-03-16T02:19:54;98319.66;;;9.23;100.00
21960;BME280;11144;43.030;25.108;2023-03-16T02:21:36;98329.19;;;9.25;100.00
21960;BME280;11144;43.030;25.108;2023-03-16T02:23:15;98333.63;;;9.25;100.00
21960;BME280;11144;43.030;25.108;2023-03-16T02:24:52;98326.94;;;9.18;100.00
21960;BME280;11144;43.030;25.108;2023-03-16T02:26:33;98329.50;;;9.19;100.00
21960;BME280;11144;43.030;25.108;2023-03-16T02:28:14;98328.00;;;9.14;100.00
21960;BME280;11144;43.030;25.108;2023-03-16T02:29:56;98338.31;;;9.18;100.00
21960;BME280;11144;43.030;25.108;2023-03-16T02:31:31;98340.63;;;9.26;100.00
21960;BME280;11144;43.030;25.108;2023-03-16T02:33:06;98344.06;;;9.28;100.00
21960;BME280;11144;43.030;25.108;2023-03-16T02:34:40;98344.69;;;9.33;100.00
21960;BME280;11144;43.030;25.108;2023-03-16T02:36:18;98338.69;;;9.29;100.00
21960;BME280;11144;43.030;25.108;2023-03-16T02:37:51;98341.56;;;9.25;100.00
21960;BME280;11144;43.030;25.108;2023-03-16T02:39:27;98344.97;;;9.27;100.00
21960;BME280;11144;43.030;25.108;2023-03-16T02:41:08;98340.34;;;9.32;100.00
21960;BME280;11144;43.030;25.108;2023-03-16T02:42:43;98344.69;;;9.33;100.00
21960;BME280;11144;43.030;25.108;2023-03-16T02:44:19;98354.59;;;9.28;100.00
21960;BME280;11144;43.030;25.108;2023-03-16T02:45:59;98340.63;;;9.26;100.00
21960;BME280;11144;43.030;25.108;2023-03-16T02:47:39;98335.47;;;9.23;100.00
21960;BME280;11144;43.030;25.108;2023-03-16T02:49:16;98332.06;;;9.21;100.00
21960;BME280;11144;43.030;25.108;2023-03-16T02:50:52;98333.91;;;9.19;100.00
21960;BME280;11144;43.030;25.108;2023-03-16T02:52:26;98341.81;;;9.19;100.00
21960;BME280;11144;43.030;25.108;2023-03-16T02:54:00;98353.31;;;9.18;100.00
21960;BME280;11144;43.030;25.108;2023-03-16T02:55:35;98341.63;;;9.23;100.00
21960;BME280;11144;43.030;25.108;2023-03-16T02:57:08;98347.97;;;9.19;100.00
21960;BME280;11144;43.030;25.108;2023-03-16T02:58:42;98355.75;;;9.22;100.00
21960;BME280;11144;43.030;25.108;2023-03-16T03:00:21;98357.06;;;9.12;100.00
21960;BME280;11144;43.030;25.108;2023-03-16T03:01:56;98357.28;;;9.08;100.00
21960;BME280;11144;43.030;25.108;2023-03-16T03:03:29;98358.97;;;9.09;100.00
21960;BME280;11144;43.030;25.108;2023-03-16T03:05:05;98365.81;;;9.13;100.00
21960;BME280;11144;43.030;25.108;2023-03-16T03:06:39;98367.44;;;9.17;100.00
21960;BME280;11144;43.030;25.108;2023-03-16T03:08:14;98366.63;;;9.15;100.00
21960;BME280;11144;43.030;25.108;2023-03-16T03:09:47;98371.97;;;9.13;100.00
21960;BME280;11144;43.030;25.108;2023-03-16T03:11:24;98366.63;;;9.15;100.00
21960;BME280;11144;43.030;25.108;2023-03-16T03:12:58;98368.56;;;9.11;100.00
21960;BME280;11144;43.030;25.108;2023-03-16T03:14:32;98367.56;;;9.14;100.00
21960;BME280;11144;43.030;25.108;2023-03-16T03:16:09;98371.41;;;9.07;100.00
21960;BME280;11144;43.030;25.108;2023-03-16T03:17:43;98377.88;;;9.00;100.00
21960;BME280;11144;43.030;25.108;2023-03-16T03:19:17;98372.91;;;8.92;100.00
21960;BME280;11144;43.030;25.108;2023-03-16T03:20:50;98385.34;;;8.90;100.00
21960;BME280;11144;43.030;25.108;2023-03-16T03:22:24;98402.41;;;8.82;100.00
21960;BME280;11144;43.030;25.108;2023-03-16T03:23:57;98404.22;;;8.80;100.00
21960;BME280;11144;43.030;25.108;2023-03-16T03:25:31;98405.16;;;8.79;100.00
21960;BME280;11144;43.030;25.108;2023-03-16T03:27:07;98406.22;;;8.75;100.00
21960;BME280;11144;43.030;25.108;2023-03-16T03:28:42;98407.34;;;8.69;100.00
21960;BME280;11144;43.030;25.108;2023-03-16T03:30:19;98395.75;;;8.53;100.00
21960;BME280;11144;43.030;25.108;2023-03-16T03:31:51;98415.97;;;8.53;100.00
21960;BME280;11144;43.030;25.108;2023-03-16T03:33:26;98405.44;;;8.53;100.00
21960;BME280;11144;43.030;25.108;2023-03-16T03:35:01;98403.19;;;8.44;100.00
21960;BME280;11144;43.030;25.108;2023-03-16T03:36:34;98411.16;;;8.42;100.00
21960;BME280;11144;43.030;25.108;2023-03-16T03:38:09;98404.09;;;8.43;100.00
21960;BME280;11144;43.030;25.108;2023-03-16T03:39:47;98409.25;;;8.46;100.00
21960;BME280;11144;43.030;25.108;2023-03-16T03:41:21;98411.22;;;8.41;100.00
21960;BME280;11144;43.030;25.108;2023-03-16T03:42:56;98413.81;;;8.42;100.00
21960;BME280;11144;43.030;25.108;2023-03-16T03:44:29;98400.88;;;8.36;100.00
21960;BME280;11144;43.030;25.108;2023-03-16T03:46:05;98401.22;;;8.29;100.00
21960;BME280;11144;43.030;25.108;2023-03-16T03:47:39;98404.63;;;8.31;100.00
21960;BME280;11144;43.030;25.108;2023-03-16T03:49:17;98412.91;;;8.22;100.00
21960;BME280;11144;43.030;25.108;2023-03-16T03:50:54;98401.81;;;8.14;100.00
21960;BME280;11144;43.030;25.108;2023-03-16T03:52:42;98413.50;;;8.07;100.00
21960;BME280;11144;43.030;25.108;2023-03-16T03:54:16;98417.25;;;8.01;100.00
21960;BME280;11144;43.030;25.108;2023-03-16T03:55:55;98421.19;;;8.11;100.00
21960;BME280;11144;43.030;25.108;2023-03-16T03:57:29;98427.09;;;8.18;100.00
21960;BME280;11144;43.030;25.108;2023-03-16T03:59:02;98424.31;;;8.21;100.00
21960;BME280;11144;43.030;25.108;2023-03-16T04:00:55;98419.03;;;8.21;100.00
21960;BME280;11144;43.030;25.108;2023-03-16T04:02:28;98427.78;;;8.23;100.00
21960;BME280;11144;43.030;25.108;2023-03-16T04:04:02;98431.44;;;8.19;100.00
21960;BME280;11144;43.030;25.108;2023-03-16T04:05:37;98433.41;;;8.14;100.00
21960;BME280;11144;43.030;25.108;2023-03-16T04:07:11;98430.78;;;8.14;100.00
21960;BME280;11144;43.030;25.108;2023-03-16T04:08:47;98437.81;;;8.13;100.00
21960;BME280;11144;43.030;25.108;2023-03-16T04:10:24;98450.91;;;8.15;100.00
21960;BME280;11144;43.030;25.108;2023-03-16T04:11:58;98443.84;;;8.15;100.00
21960;BME280;11144;43.030;25.108;2023-03-16T04:13:31;98449.31;;;8.11;100.00
21960;BME280;11144;43.030;25.108;2023-03-16T04:15:05;98446.56;;;8.14;100.00
21960;BME280;11144;43.030;25.108;2023-03-16T04:16:48;98454.47;;;8.14;100.00
21960;BME280;11144;43.030;25.108;2023-03-16T04:18:21;98455.34;;;8.13;100.00
21960;BME280;11144;43.030;25.108;2023-03-16T04:19:55;98457.88;;;8.16;100.00
21960;BME280;11144;43.030;25.108;2023-03-16T04:21:30;98470.25;;;8.14;100.00
21960;BME280;11144;43.030;25.108;2023-03-16T04:23:03;98463.13;;;8.16;100.00
21960;BME280;11144;43.030;25.108;2023-03-16T04:24:39;98468.22;;;8.20;100.00
21960;BME280;11144;43.030;25.108;2023-03-16T04:26:16;98463.38;;;8.10;100.00
21960;BME280;11144;43.030;25.108;2023-03-16T04:27:50;98479.31;;;8.07;100.00
21960;BME280;11144;43.030;25.108;2023-03-16T04:29:28;98469.13;;;7.98;100.00
21960;BME280;11144;43.030;25.108;2023-03-16T04:31:03;98477.47;;;8.09;100.00
21960;BME280;11144;43.030;25.108;2023-03-16T04:32:42;98480.16;;;8.07;100.00
21960;BME280;11144;43.030;25.108;2023-03-16T04:34:20;98486.41;;;8.05;100.00
21960;BME280;11144;43.030;25.108;2023-03-16T04:35:59;98481.25;;;8.02;100.00
21960;BME280;11144;43.030;25.108;2023-03-16T04:37:35;98492.03;;;7.96;100.00
21960;BME280;11144;43.030;25.108;2023-03-16T04:39:08;98484.97;;;7.96;100.00
21960;BME280;11144;43.030;25.108;2023-03-16T04:40:42;98488.47;;;7.97;100.00
21960;BME280;11144;43.030;25.108;2023-03-16T04:42:20;98500.72;;;7.98;100.00
21960;BME280;11144;43.030;25.108;2023-03-16T04:43:54;98501.09;;;7.89;100.00
21960;BME280;11144;43.030;25.108;2023-03-16T04:45:29;98511.84;;;7.83;100.00
21960;BME280;11144;43.030;25.108;2023-03-16T04:47:04;98507.00;;;7.72;100.00
21960;BME280;11144;43.030;25.108;2023-03-16T04:48:42;98508.47;;;7.79;100.00
21960;BME280;11144;43.030;25.108;2023-03-16T04:50:15;98522.47;;;7.80;100.00
21960;BME280;11144;43.030;25.108;2023-03-16T04:51:54;98515.38;;;7.82;100.00
21960;BME280;11144;43.030;25.108;2023-03-16T04:53:30;98517.47;;;7.74;100.00
21960;BME280;11144;43.030;25.108;2023-03-16T04:55:11;98516.44;;;7.55;100.00
21960;BME280;11144;43.030;25.108;2023-03-16T04:56:44;98522.78;;;7.49;100.00
21960;BME280;11144;43.030;25.108;2023-03-16T04:58:28;98518.69;;;7.41;100.00
21960;BME280;11144;43.030;25.108;2023-03-16T05:00:04;98529.22;;;7.41;100.00
21960;BME280;11144;43.030;25.108;2023-03-16T05:01:50;98524.16;;;7.35;100.00
21960;BME280;11144;43.030;25.108;2023-03-16T05:03:24;98530.66;;;7.25;100.00
21960;BME280;11144;43.030;25.108;2023-03-16T05:04:57;98531.69;;;7.21;100.00
21960;BME280;11144;43.030;25.108;2023-03-16T05:06:30;98522.91;;;7.22;100.00
21960;BME280;11144;43.030;25.108;2023-03-16T05:08:05;98522.91;;;7.22;100.00
21960;BME280;11144;43.030;25.108;2023-03-16T05:09:42;98535.66;;;7.32;100.00
21960;BME280;11144;43.030;25.108;2023-03-16T05:11:15;98535.59;;;7.34;100.00
21960;BME280;11144;43.030;25.108;2023-03-16T05:12:59;98540.28;;;7.26;100.00
21960;BME280;11144;43.030;25.108;2023-03-16T05:14:33;98541.06;;;7.28;100.00
21960;BME280;11144;43.030;25.108;2023-03-16T05:16:23;98547.94;;;7.32;100.00
21960;BME280;11144;43.030;25.108;2023-03-16T05:17:57;98558.19;;;7.39;100.00
21960;BME280;11144;43.030;25.108;2023-03-16T05:19:30;98560.44;;;7.50;100.00
21960;BME280;11144;43.030;25.108;2023-03-16T05:21:04;98563.78;;;7.55;100.00
21960;BME280;11144;43.030;25.108;2023-03-16T05:22:51;98571.06;;;7.47;100.00
21960;BME280;11144;43.030;25.108;2023-03-16T05:24:29;98567.75;;;7.42;100.00
21960;BME280;11144;43.030;25.108;2023-03-16T05:26:03;98562.28;;;7.48;100.00
21960;BME280;11144;43.030;25.108;2023-03-16T05:27:41;98574.28;;;7.55;100.00
21960;BME280;11144;43.030;25.108;2023-03-16T05:29:16;98574.28;;;7.55;100.00
21960;BME280;11144;43.030;25.108;2023-03-16T05:30:49;98581.47;;;7.50;100.00
21960;BME280;11144;43.030;25.108;2023-03-16T05:32:28;98588.97;;;7.36;100.00
21960;BME280;11144;43.030;25.108;2023-03-16T05:34:02;98587.28;;;7.35;100.00
21960;BME280;11144;43.030;25.108;2023-03-16T05:35:35;98595.22;;;7.33;100.00
21960;BME280;11144;43.030;25.108;2023-03-16T05:37:13;98588.97;;;7.36;100.00
21960;BME280;11144;43.030;25.108;2023-03-16T05:38:46;98595.84;;;7.40;100.00
21960;BME280;11144;43.030;25.108;2023-03-16T05:40:32;98595.97;;;7.37;100.00
21960;BME280;11144;43.030;25.108;2023-03-16T05:42:16;98601.34;;;7.34;100.00
21960;BME280;11144;43.030;25.108;2023-03-16T05:44:00;98603.28;;;7.29;100.00
21960;BME280;11144;43.030;25.108;2023-03-16T05:46:10;98605.41;;;7.18;100.00
21960;BME280;11144;43.030;25.108;2023-03-16T05:47:44;98603.06;;;7.08;100.00
21960;BME280;11144;43.030;25.108;2023-03-16T05:49:18;98612.81;;;7.07;100.00
21960;BME280;11144;43.030;25.108;2023-03-16T05:50:52;98606.91;;;6.98;100.00
21960;BME280;11144;43.030;25.108;2023-03-16T05:52:31;98617.28;;;7.03;100.00
21960;BME280;11144;43.030;25.108;2023-03-16T05:54:09;98617.97;;;7.08;100.00
21960;BME280;11144;43.030;25.108;2023-03-16T05:55:50;98630.19;;;7.11;100.00
21960;BME280;11144;43.030;25.108;2023-03-16T05:57:25;98623.31;;;7.07;100.00
21960;BME280;11144;43.030;25.108;2023-03-16T05:58:59;98620.78;;;7.03;100.00
21960;BME280;11144;43.030;25.108;2023-03-16T06:00:33;98627.13;;;6.96;100.00
21960;BME280;11144;43.030;25.108;2023-03-16T06:02:17;98620.28;;;6.92;100.00
21960;BME280;11144;43.030;25.108;2023-03-16T06:03:50;98624.59;;;6.93;100.00
21960;BME280;11144;43.030;25.108;2023-03-16T06:05:28;98624.19;;;6.79;100.00
21960;BME280;11144;43.030;25.108;2023-03-16T06:07:03;98642.78;;;6.73;100.00
21960;BME280;11144;43.030;25.108;2023-03-16T06:08:37;98645.41;;;6.73;100.00
21960;BME280;11144;43.030;25.108;2023-03-16T06:10:13;98640.34;;;6.67;100.00
21960;BME280;11144;43.030;25.108;2023-03-16T06:11:46;98645.69;;;6.64;100.00
21960;BME280;11144;43.030;25.108;2023-03-16T06:13:23;98647.41;;;6.65;100.00
21960;BME280;11144;43.030;25.108;2023-03-16T06:14:56;98648.94;;;6.72;100.00
21960;BME280;11144;43.030;25.108;2023-03-16T06:16:30;98649.72;;;6.76;100.00
21960;BME280;11144;43.030;25.108;2023-03-16T06:18:04;98648.84;;;6.75;100.00
21960;BME280;11144;43.030;25.108;2023-03-16T06:19:37;98660.97;;;6.79;100.00
21960;BME280;11144;43.030;25.108;2023-03-16T06:21:11;98654.09;;;6.75;100.00
21960;BME280;11144;43.030;25.108;2023-03-16T06:22:46;98659.34;;;6.75;100.00
21960;BME280;11144;43.030;25.108;2023-03-16T06:24:20;98657.41;;;6.80;100.00
21960;BME280;11144;43.030;25.108;2023-03-16T06:25:55;98662.81;;;6.77;100.00
21960;BME280;11144;43.030;25.108;2023-03-16T06:27:32;98663.47;;;6.84;100.00
21960;BME280;11144;43.030;25.108;2023-03-16T06:29:16;98659.06;;;6.84;100.00
21960;BME280;11144;43.030;25.108;2023-03-16T06:30:52;98659.06;;;6.84;100.00
21960;BME280;11144;43.030;25.108;2023-03-16T06:32:27;98665.94;;;6.88;100.00
21960;BME280;11144;43.030;25.108;2023-03-16T06:34:01;98668.56;;;6.88;100.00
21960;BME280;11144;43.030;25.108;2023-03-16T06:35:35;98671.28;;;6.85;100.00
21960;BME280;11144;43.030;25.108;2023-03-16T06:37:19;98668.91;;;6.78;100.00
21960;BME280;11144;43.030;25.108;2023-03-16T06:38:53;98673.19;;;6.80;100.00
21960;BME280;11144;43.030;25.108;2023-03-16T06:40:34;98668.84;;;6.79;100.00
21960;BME280;11144;43.030;25.108;2023-03-16T06:42:09;98674.84;;;6.84;100.00
21960;BME280;11144;43.030;25.108;2023-03-16T06:43:43;98684.38;;;6.87;100.00
21960;BME280;11144;43.030;25.108;2023-03-16T06:45:17;98683.59;;;6.83;100.00
21960;BME280;11144;43.030;25.108;2023-03-16T06:46:54;98684.66;;;6.78;100.00
21960;BME280;11144;43.030;25.108;2023-03-16T06:48:27;98687.53;;;6.70;100.00
21960;BME280;11144;43.030;25.108;2023-03-16T06:50:01;98684.00;;;6.71;100.00
21960;BME280;11144;43.030;25.108;2023-03-16T06:51:35;98688.09;;;6.52;100.00
21960;BME280;11144;43.030;25.108;2023-03-16T06:53:09;98707.09;;;6.60;100.00
21960;BME280;11144;43.030;25.108;2023-03-16T06:54:43;98703.56;;;6.61;100.00
21960;BME280;11144;43.030;25.108;2023-03-16T06:56:17;98707.94;;;6.62;100.00
21960;BME280;11144;43.030;25.108;2023-03-16T06:57:51;98701.63;;;6.68;100.00
21960;BME280;11144;43.030;25.108;2023-03-16T06:59:24;98708.94;;;6.58;100.00
21960;BME280;11144;43.030;25.108;2023-03-16T07:01:01;98711.59;;;6.57;100.00
21960;BME280;11144;43.030;25.108;2023-03-16T07:02:35;98708.38;;;6.47;100.00
21960;BME280;11144;43.030;25.108;2023-03-16T07:04:12;98711.09;;;6.44;100.00
21960;BME280;11144;43.030;25.108;2023-03-16T07:05:45;98716.34;;;6.44;100.00
21960;BME280;11144;43.030;25.108;2023-03-16T07:07:19;98719.84;;;6.43;100.00
21960;BME280;11144;43.030;25.108;2023-03-16T07:08:52;98716.50;;;6.38;100.00
21960;BME280;11144;43.030;25.108;2023-03-16T07:10:27;98703.00;;;6.21;100.00
21960;BME280;11144;43.030;25.108;2023-03-16T07:12:00;98706.09;;;6.35;100.00
21960;BME280;11144;43.030;25.108;2023-03-16T07:13:35;98717.97;;;6.48;100.00
21960;BME280;11144;43.030;25.108;2023-03-16T07:15:09;98719.97;;;6.40;100.00
21960;BME280;11144;43.030;25.108;2023-03-16T07:16:45;98727.69;;;6.45;100.00
21960;BME280;11144;43.030;25.108;2023-03-16T07:18:20;98735.44;;;6.49;100.00
21960;BME280;11144;43.030;25.108;2023-03-16T07:19:54;98738.59;;;6.60;100.00
21960;BME280;11144;43.030;25.108;2023-03-16T07:21:27;98740.16;;;6.67;100.00
21960;BME280;11144;43.030;25.108;2023-03-16T07:23:00;98745.41;;;6.67;100.00
21960;BME280;11144;43.030;25.108;2023-03-16T07:24:34;98734.31;;;6.58;100.00
21960;BME280;11144;43.030;25.108;2023-03-16T07:26:08;98740.53;;;6.55;100.00
21960;BME280;11144;43.030;25.108;2023-03-16T07:27:52;98738.59;;;6.60;100.00
21960;BME280;11144;43.030;25.108;2023-03-16T07:29:31;98742.16;;;6.59;100.00
21960;BME280;11144;43.030;25.108;2023-03-16T07:31:07;98741.41;;;6.54;100.00
21960;BME280;11144;43.030;25.108;2023-03-16T07:32:45;98744.03;;;6.54;100.00
21960;BME280;11144;43.030;25.108;2023-03-16T07:34:18;98756.28;;;6.55;100.00
21960;BME280;11144;43.030;25.108;2023-03-16T07:35:57;98754.72;;;6.48;100.00
21960;BME280;11144;43.030;25.108;2023-03-16T07:37:31;98763.53;;;6.47;100.00
21960;BME280;11144;43.030;25.108;2023-03-16T07:39:07;98758.50;;;6.38;100.00
21960;BME280;11144;43.030;25.108;2023-03-16T07:40:45;98762.13;;;6.34;100.00
21960;BME280;11144;43.030;25.108;2023-03-16T07:42:24;98755.16;;;6.33;100.00
21960;BME280;11144;43.030;25.108;2023-03-16T07:44:06;98750.91;;;6.29;100.00
21960;BME280;11144;43.030;25.108;2023-03-16T07:45:40;98768.75;;;6.17;100.00
21960;BME280;11144;43.030;25.108;2023-03-16T07:47:13;98772.91;;;6.25;100.00
21960;BME280;11144;43.030;25.108;2023-03-16T07:48:49;98765.91;;;6.24;100.00
21960;BME280;11144;43.030;25.108;2023-03-16T07:50:22;98768.72;;;6.18;100.00
21960;BME280;11144;43.030;25.108;2023-03-16T07:51:57;98765.91;;;6.24;100.00
21960;BME280;11144;43.030;25.108;2023-03-16T07:53:38;98770.22;;;6.27;100.00
21960;BME280;11144;43.030;25.108;2023-03-16T07:55:20;98773.81;;;6.23;100.00
21960;BME280;11144;43.030;25.108;2023-03-16T07:56:54;98776.31;;;6.27;100.00
21960;BME280;11144;43.030;25.108;2023-03-16T07:58:35;98778.22;;;6.22;100.00
21960;BME280;11144;43.030;25.108;2023-03-16T08:00:09;98783.56;;;6.19;100.00
21960;BME280;11144;43.030;25.108;2023-03-16T08:01:46;98777.31;;;6.23;100.00
21960;BME280;11144;43.030;25.108;2023-03-16T08:03:20;98780.66;;;6.28;100.00
21960;BME280;11144;43.030;25.108;2023-03-16T08:04:55;98783.34;;;6.27;100.00
21960;BME280;11144;43.030;25.108;2023-03-16T08:06:28;98787.81;;;6.23;100.00
21960;BME280;11144;43.030;25.108;2023-03-16T08:08:02;98793.09;;;6.22;100.00
21960;BME280;11144;43.030;25.108;2023-03-16T08:09:37;98793.91;;;6.25;100.00
21960;BME280;11144;43.030;25.108;2023-03-16T08:11:12;98782.53;;;6.25;100.00
21960;BME280;11144;43.030;25.108;2023-03-16T08:12:57;98793.03;;;6.25;100.00
21960;BME280;11144;43.030;25.108;2023-03-16T08:14:31;98793.91;;;6.25;100.00
21960;BME280;11144;43.030;25.108;2023-03-16T08:16:27;98787.09;;;6.18;100.00
21960;BME280;11144;43.030;25.108;2023-03-16T08:18:01;98807.97;;;6.21;100.00
21960;BME280;11144;43.030;25.108;2023-03-16T08:19:34;98802.91;;;6.15;100.00
21960;BME280;11144;43.030;25.108;2023-03-16T08:21:10;98810.69;;;6.20;100.00